Aurora Springs, Missouri
Current Conditions -  °F | °C
As of 11:55 AM on Sunday 21 Dec 2014 (Local Time) from KAIZ Reporting Station
Overcast Overcast  
Wind Chill: 38°   Ceiling: 1100
Heat Index: 43°   Visibility: 9mi
Dew Point: 36°   Wind: 8mph
Humidity: 76%   Direction: 160°SSE
Pressure: 30.05"   Gusts: NA
Location:  38.333°N, 92.5524°W
Report Text: KAIZ 211755Z AUTO 16007KT 9SM OVC011 06/02 A3005 RMK AO1 10060 20050 57024
Loading
Personal Weather Stations






























Interactive Weather Map New forecast layout! Learn more

10-Day Weather Forecast

Advertisements
Track Severe Weather on mobile